sensor_id;sensor_type;location;lat;lon;timestamp;pressure;altitude;pressure_sealevel;temperature;humidity
2036;BME280;23642;42.658;23.350;2023-04-15T00:00:11;51038.75;;;-146.31;99.29
2036;BME280;23642;42.658;23.350;2023-04-15T00:02:37;50657.19;;;-146.31;99.84
2036;BME280;23642;42.658;23.350;2023-04-15T00:05:05;50490.13;;;-146.31;99.44
2036;BME280;23642;42.658;23.350;2023-04-15T00:07:31;50607.69;;;-146.31;98.22
2036;BME280;23642;42.658;23.350;2023-04-15T00:09:59;50725.25;;;-146.31;97.64
2036;BME280;23642;42.658;23.350;2023-04-15T00:12:27;50993.38;;;-146.31;95.93
2036;BME280;23642;42.658;23.350;2023-04-15T00:14:54;51471.97;;;-146.31;93.64
2036;BME280;23642;42.658;23.350;2023-04-15T00:17:21;51560.69;;;-146.31;93.47
2036;BME280;23642;42.658;23.350;2023-04-15T00:19:48;51517.34;;;-146.31;94.12
2036;BME280;23642;42.658;23.350;2023-04-15T00:22:15;51325.50;;;-146.31;95.65
2036;BME280;23642;42.658;23.350;2023-04-15T00:24:42;50985.13;;;-146.31;97.06
2036;BME280;23642;42.658;23.350;2023-04-15T00:27:10;50754.13;;;-146.31;97.58
2036;BME280;23642;42.658;23.350;2023-04-15T00:29:37;50593.25;;;-146.31;97.83
2036;BME280;23642;42.658;23.350;2023-04-15T00:32:04;50314.81;;;-146.31;98.42
2036;BME280;23642;42.658;23.350;2023-04-15T00:34:30;50110.66;;;-146.31;99.04
2036;BME280;23642;42.658;23.350;2023-04-15T00:36:57;50013.72;;;-146.31;99.13
2036;BME280;23642;42.658;23.350;2023-04-15T00:39:25;49894.13;;;-146.31;99.32
2036;BME280;23642;42.658;23.350;2023-04-15T00:41:52;49877.63;;;-146.31;98.76
2036;BME280;23642;42.658;23.350;2023-04-15T00:44:21;50015.78;;;-146.31;98.27
2036;BME280;23642;42.658;23.350;2023-04-15T00:46:50;50007.53;;;-146.31;98.26
2036;BME280;23642;42.658;23.350;2023-04-15T00:49:17;49925.06;;;-146.31;98.40
2036;BME280;23642;42.658;23.350;2023-04-15T00:51:44;49840.50;;;-146.31;98.72
2036;BME280;23642;42.658;23.350;2023-04-15T00:54:11;49854.94;;;-146.31;98.29
2036;BME280;23642;42.658;23.350;2023-04-15T00:56:38;49817.84;;;-146.31;98.79
2036;BME280;23642;42.658;23.350;2023-04-15T00:59:05;49731.22;;;-146.31;98.87
2036;BME280;23642;42.658;23.350;2023-04-15T01:01:35;49650.81;;;-146.31;99.04
2036;BME280;23642;42.658;23.350;2023-04-15T01:04:03;49502.34;;;-146.31;99.76
2036;BME280;23642;42.658;23.350;2023-04-15T01:06:30;49358.03;;;-146.31;99.78
2036;BME280;23642;42.658;23.350;2023-04-15T01:08:57;49259.06;;;-146.31;99.73
2036;BME280;23642;42.658;23.350;2023-04-15T01:11:24;49174.53;;;-146.31;100.00
2036;BME280;23642;42.658;23.350;2023-04-15T01:13:52;49096.19;;;-146.31;100.00
2036;BME280;23642;42.658;23.350;2023-04-15T01:16:23;49067.34;;;-146.31;100.00
2036;BME280;23642;42.658;23.350;2023-04-15T01:18:51;48956.03;;;-146.31;100.00
2036;BME280;23642;42.658;23.350;2023-04-15T01:21:18;48933.34;;;-146.31;100.00
2036;BME280;23642;42.658;23.350;2023-04-15T01:23:46;48914.78;;;-146.31;100.00
2036;BME280;23642;42.658;23.350;2023-04-15T01:26:15;48939.53;;;-146.31;100.00
2036;BME280;23642;42.658;23.350;2023-04-15T01:28:43;48855.00;;;-146.31;100.00
2036;BME280;23642;42.658;23.350;2023-04-15T01:31:11;48768.44;;;-146.31;100.00
2036;BME280;23642;42.658;23.350;2023-04-15T01:33:39;48642.69;;;-146.31;100.00
2036;BME280;23642;42.658;23.350;2023-04-15T01:36:08;48496.34;;;-146.31;100.00
2036;BME280;23642;42.658;23.350;2023-04-15T01:38:35;48317.03;;;-146.31;100.00
2036;BME280;23642;42.658;23.350;2023-04-15T01:41:03;48127.41;;;-146.31;100.00
2036;BME280;23642;42.658;23.350;2023-04-15T01:43:33;47929.56;;;-146.31;100.00
2036;BME280;23642;42.658;23.350;2023-04-15T01:46:00;47746.16;;;-146.31;100.00
2036;BME280;23642;42.658;23.350;2023-04-15T01:48:27;47568.94;;;-146.31;100.00
2036;BME280;23642;42.658;23.350;2023-04-15T01:50:55;47369.06;;;-146.31;100.00
2036;BME280;23642;42.658;23.350;2023-04-15T01:53:23;47294.88;;;-146.31;100.00
2036;BME280;23642;42.658;23.350;2023-04-15T01:55:50;47303.13;;;-146.31;100.00
2036;BME280;23642;42.658;23.350;2023-04-15T01:58:18;47280.44;;;-146.31;100.00
2036;BME280;23642;42.658;23.350;2023-04-15T02:00:46;47348.44;;;-146.31;100.00
2036;BME280;23642;42.658;23.350;2023-04-15T02:03:13;47307.22;;;-146.31;100.00
2036;BME280;23642;42.658;23.350;2023-04-15T02:05:40;47193.91;;;-146.31;100.00
2036;BME280;23642;42.658;23.350;2023-04-15T02:08:07;47004.34;;;-146.31;100.00
2036;BME280;23642;42.658;23.350;2023-04-15T02:10:35;46818.94;;;-146.31;100.00
2036;BME280;23642;42.658;23.350;2023-04-15T02:13:02;46672.66;;;-146.31;100.00
2036;BME280;23642;42.658;23.350;2023-04-15T02:15:29;46470.78;;;-146.31;100.00
2036;BME280;23642;42.658;23.350;2023-04-15T02:17:57;46483.13;;;-146.31;100.00
2036;BME280;23642;42.658;23.350;2023-04-15T02:20:25;46610.88;;;-146.31;100.00
2036;BME280;23642;42.658;23.350;2023-04-15T02:22:52;46536.69;;;-146.31;100.00
2036;BME280;23642;42.658;23.350;2023-04-15T02:25:19;46516.09;;;-146.31;100.00
2036;BME280;23642;42.658;23.350;2023-04-15T02:27:46;46479.03;;;-146.31;100.00
2036;BME280;23642;42.658;23.350;2023-04-15T02:30:13;46363.66;;;-146.31;100.00
2036;BME280;23642;42.658;23.350;2023-04-15T02:32:40;46289.50;;;-146.31;100.00
2036;BME280;23642;42.658;23.350;2023-04-15T02:35:10;46165.91;;;-146.31;100.00
2036;BME280;23642;42.658;23.350;2023-04-15T02:37:37;45986.72;;;-146.31;100.00
2036;BME280;23642;42.658;23.350;2023-04-15T02:40:09;45838.44;;;-146.31;100.00
2036;BME280;23642;42.658;23.350;2023-04-15T02:42:37;45657.19;;;-146.31;100.00
2036;BME280;23642;42.658;23.350;2023-04-15T02:45:05;45471.84;;;-146.31;100.00
2036;BME280;23642;42.658;23.350;2023-04-15T02:47:32;45449.19;;;-146.31;100.00
2036;BME280;23642;42.658;23.350;2023-04-15T02:49:59;45539.81;;;-146.31;100.00
2036;BME280;23642;42.658;23.350;2023-04-15T02:52:27;45601.59;;;-146.31;100.00
2036;BME280;23642;42.658;23.350;2023-04-15T02:54:55;45706.63;;;-146.31;100.00
2036;BME280;23642;42.658;23.350;2023-04-15T02:57:25;45698.38;;;-146.31;100.00
2036;BME280;23642;42.658;23.350;2023-04-15T02:59:53;45657.19;;;-146.31;100.00
2036;BME280;23642;42.658;23.350;2023-04-15T03:02:21;45918.75;;;-146.31;100.00
2036;BME280;23642;42.658;23.350;2023-04-15T03:04:47;46481.09;;;-146.31;100.00
2036;BME280;23642;42.658;23.350;2023-04-15T03:07:14;46726.22;;;-146.31;100.00
2036;BME280;23642;42.658;23.350;2023-04-15T03:09:42;46959.03;;;-146.31;100.00
2036;BME280;23642;42.658;23.350;2023-04-15T03:12:09;46936.38;;;-146.31;100.00
2036;BME280;23642;42.658;23.350;2023-04-15T03:14:36;46796.28;;;-146.31;100.00
2036;BME280;23642;42.658;23.350;2023-04-15T03:17:05;46639.72;;;-146.31;100.00
2036;BME280;23642;42.658;23.350;2023-04-15T03:19:32;46794.22;;;-146.31;100.00
2036;BME280;23642;42.658;23.350;2023-04-15T03:21:59;47055.88;;;-146.31;100.00
2036;BME280;23642;42.658;23.350;2023-04-15T03:24:26;47039.38;;;-146.31;100.00
2036;BME280;23642;42.658;23.350;2023-04-15T03:26:56;46901.34;;;-146.31;100.00
2036;BME280;23642;42.658;23.350;2023-04-15T03:29:23;46934.31;;;-146.31;100.00
2036;BME280;23642;42.658;23.350;2023-04-15T03:31:51;47024.97;;;-146.31;100.00
2036;BME280;23642;42.658;23.350;2023-04-15T03:34:18;46891.03;;;-146.31;100.00
2036;BME280;23642;42.658;23.350;2023-04-15T03:36:45;46934.31;;;-146.31;100.00
2036;BME280;23642;42.658;23.350;2023-04-15T03:39:11;46792.16;;;-146.31;100.00
2036;BME280;23642;42.658;23.350;2023-04-15T03:41:38;46682.97;;;-146.31;100.00
2036;BME280;23642;42.658;23.350;2023-04-15T03:44:06;46664.44;;;-146.31;100.00
2036;BME280;23642;42.658;23.350;2023-04-15T03:46:33;46584.09;;;-146.31;100.00
2036;BME280;23642;42.658;23.350;2023-04-15T03:49:01;46429.59;;;-146.31;100.00
2036;BME280;23642;42.658;23.350;2023-04-15T03:51:28;46219.47;;;-146.31;100.00
2036;BME280;23642;42.658;23.350;2023-04-15T03:53:55;45972.31;;;-146.31;100.00
2036;BME280;23642;42.658;23.350;2023-04-15T03:56:23;45803.41;;;-146.31;100.00
2036;BME280;23642;42.658;23.350;2023-04-15T03:58:50;45712.81;;;-146.31;100.00
2036;BME280;23642;42.658;23.350;2023-04-15T04:01:19;45556.28;;;-146.31;100.00
2036;BME280;23642;42.658;23.350;2023-04-15T04:03:46;45424.47;;;-146.31;100.00
2036;BME280;23642;42.658;23.350;2023-04-15T04:06:13;45280.34;;;-146.31;100.00
2036;BME280;23642;42.658;23.350;2023-04-15T04:08:41;45154.72;;;-146.31;100.00
2036;BME280;23642;42.658;23.350;2023-04-15T04:11:08;45212.38;;;-146.31;100.00
2036;BME280;23642;42.658;23.350;2023-04-15T04:13:35;45156.78;;;-146.31;100.00
2036;BME280;23642;42.658;23.350;2023-04-15T04:16:02;45158.84;;;-146.31;100.00
2036;BME280;23642;42.658;23.350;2023-04-15T04:18:31;45144.44;;;-146.31;100.00
2036;BME280;23642;42.658;23.350;2023-04-15T04:20:57;45033.22;;;-146.31;100.00
2036;BME280;23642;42.658;23.350;2023-04-15T04:23:25;44930.28;;;-146.31;100.00
2036;BME280;23642;42.658;23.350;2023-04-15T04:25:51;44810.84;;;-146.31;100.00
2036;BME280;23642;42.658;23.350;2023-04-15T04:28:19;44724.38;;;-146.31;100.00
2036;BME280;23642;42.658;23.350;2023-04-15T04:30:46;44625.56;;;-146.31;100.00
2036;BME280;23642;42.658;23.350;2023-04-15T04:33:13;44637.91;;;-146.31;100.00
2036;BME280;23642;42.658;23.350;2023-04-15T04:35:41;44742.91;;;-146.31;100.00
2036;BME280;23642;42.658;23.350;2023-04-15T04:38:08;44852.03;;;-146.31;100.00
2036;BME280;23642;42.658;23.350;2023-04-15T04:40:35;44942.63;;;-146.31;100.00
2036;BME280;23642;42.658;23.350;2023-04-15T04:43:02;45640.72;;;-146.31;100.00
2036;BME280;23642;42.658;23.350;2023-04-15T04:45:29;46126.78;;;-146.31;100.00
2036;BME280;23642;42.658;23.350;2023-04-15T04:47:56;46353.38;;;-146.31;100.00
2036;BME280;23642;42.658;23.350;2023-04-15T04:50:23;46361.59;;;-146.31;100.00
2036;BME280;23642;42.658;23.350;2023-04-15T04:52:51;46479.03;;;-146.31;100.00
2036;BME280;23642;42.658;23.350;2023-04-15T04:55:18;46788.03;;;-146.31;99.03
2036;BME280;23642;42.658;23.350;2023-04-15T04:57:45;47156.81;;;-146.31;97.99
2036;BME280;23642;42.658;23.350;2023-04-15T05:00:12;47630.75;;;-146.31;95.59
2036;BME280;23642;42.658;23.350;2023-04-15T05:02:39;47933.69;;;-146.31;95.04
2036;BME280;23642;42.658;23.350;2023-04-15T05:05:08;48207.78;;;-146.31;93.26
2036;BME280;23642;42.658;23.350;2023-04-15T05:07:35;48413.91;;;-146.31;92.54
2036;BME280;23642;42.658;23.350;2023-04-15T05:10:05;48648.88;;;-146.31;91.64
2036;BME280;23642;42.658;23.350;2023-04-15T05:12:32;48725.13;;;-146.31;91.69
2036;BME280;23642;42.658;23.350;2023-04-15T05:15:00;48826.16;;;-146.31;91.26
2036;BME280;23642;42.658;23.350;2023-04-15T05:17:27;48972.50;;;-146.31;90.76
2036;BME280;23642;42.658;23.350;2023-04-15T05:19:55;49048.78;;;-146.31;90.07
2036;BME280;23642;42.658;23.350;2023-04-15T05:22:22;49263.19;;;-146.31;88.19
2036;BME280;23642;42.658;23.350;2023-04-15T05:24:49;49551.84;;;-146.31;86.12
2036;BME280;23642;42.658;23.350;2023-04-15T05:27:17;49687.94;;;-146.31;86.16
2036;BME280;23642;42.658;23.350;2023-04-15T05:29:44;49863.19;;;-146.31;84.67
2036;BME280;23642;42.658;23.350;2023-04-15T05:32:11;50028.16;;;-146.31;83.24
2036;BME280;23642;42.658;23.350;2023-04-15T05:34:38;50087.97;;;-146.31;83.74
2036;BME280;23642;42.658;23.350;2023-04-15T05:37:05;50164.25;;;-146.31;82.96
2036;BME280;23642;42.658;23.350;2023-04-15T05:39:32;50205.50;;;-146.31;82.69
2036;BME280;23642;42.658;23.350;2023-04-15T05:41:58;50325.13;;;-146.31;81.61
2036;BME280;23642;42.658;23.350;2023-04-15T05:44:27;50514.88;;;-146.31;79.67
2036;BME280;23642;42.658;23.350;2023-04-15T05:46:53;50684.00;;;-146.31;78.01
2036;BME280;23642;42.658;23.350;2023-04-15T05:49:20;50774.75;;;-146.31;78.68
2036;BME280;23642;42.658;23.350;2023-04-15T05:51:47;50861.38;;;-146.31;78.16
2036;BME280;23642;42.658;23.350;2023-04-15T05:54:14;50898.50;;;-146.31;78.41
2036;BME280;23642;42.658;23.350;2023-04-15T05:56:41;51051.13;;;-146.31;76.27
2036;BME280;23642;42.658;23.350;2023-04-15T05:59:08;51226.47;;;-146.31;75.42
2036;BME280;23642;42.658;23.350;2023-04-15T06:01:37;51306.94;;;-146.31;75.41
2036;BME280;23642;42.658;23.350;2023-04-15T06:04:04;51257.41;;;-146.31;76.32
2036;BME280;23642;42.658;23.350;2023-04-15T06:06:31;51304.88;;;-146.31;75.85
2036;BME280;23642;42.658;23.350;2023-04-15T06:08:58;51348.19;;;-146.31;74.88
2036;BME280;23642;42.658;23.350;2023-04-15T06:11:25;51430.72;;;-146.31;74.38
2036;BME280;23642;42.658;23.350;2023-04-15T06:13:52;51457.53;;;-146.31;75.03
2036;BME280;23642;42.658;23.350;2023-04-15T06:16:19;51401.81;;;-146.31;75.64
2036;BME280;23642;42.658;23.350;2023-04-15T06:18:47;51451.34;;;-146.31;73.85
2036;BME280;23642;42.658;23.350;2023-04-15T06:21:15;51544.19;;;-146.31;73.24
2036;BME280;23642;42.658;23.350;2023-04-15T06:23:42;51573.06;;;-146.31;73.03
2036;BME280;23642;42.658;23.350;2023-04-15T06:26:09;51597.81;;;-146.31;73.03
2036;BME280;23642;42.658;23.350;2023-04-15T06:28:36;51659.72;;;-146.31;72.31
2036;BME280;23642;42.658;23.350;2023-04-15T06:31:02;51711.28;;;-146.31;72.05
2036;BME280;23642;42.658;23.350;2023-04-15T06:33:30;51826.81;;;-146.31;70.00
2036;BME280;23642;42.658;23.350;2023-04-15T06:35:59;51913.47;;;-146.31;70.08
2036;BME280;23642;42.658;23.350;2023-04-15T06:38:26;51998.09;;;-146.31;70.10
2036;BME280;23642;42.658;23.350;2023-04-15T06:40:53;52057.91;;;-146.31;69.39
2036;BME280;23642;42.658;23.350;2023-04-15T06:43:20;52029.03;;;-146.31;69.83
2036;BME280;23642;42.658;23.350;2023-04-15T06:45:47;52090.94;;;-146.31;68.96
2036;BME280;23642;42.658;23.350;2023-04-15T06:48:14;52078.56;;;-146.31;69.73
2036;BME280;23642;42.658;23.350;2023-04-15T06:50:41;52150.78;;;-146.31;68.65
2036;BME280;23642;42.658;23.350;2023-04-15T06:53:10;52156.97;;;-146.31;69.98
2036;BME280;23642;42.658;23.350;2023-04-15T06:55:37;52196.16;;;-146.31;70.24
2036;BME280;23642;42.658;23.350;2023-04-15T06:58:04;52115.69;;;-146.31;70.35
2036;BME280;23642;42.658;23.350;2023-04-15T07:00:31;52218.88;;;-146.31;69.08
2036;BME280;23642;42.658;23.350;2023-04-15T07:02:58;52241.56;;;-146.31;69.82
2036;BME280;23642;42.658;23.350;2023-04-15T07:05:27;52272.50;;;-146.31;68.05
2036;BME280;23642;42.658;23.350;2023-04-15T07:07:55;52278.72;;;-146.31;68.50
2036;BME280;23642;42.658;23.350;2023-04-15T07:10:23;52359.19;;;-146.31;68.62
2036;BME280;23642;42.658;23.350;2023-04-15T07:12:50;52309.66;;;-146.31;68.34
2036;BME280;23642;42.658;23.350;2023-04-15T07:15:17;52346.81;;;-146.31;67.45
2036;BME280;23642;42.658;23.350;2023-04-15T07:17:43;52361.25;;;-146.31;67.68
2036;BME280;23642;42.658;23.350;2023-04-15T07:20:11;52402.53;;;-146.31;67.56
2036;BME280;23642;42.658;23.350;2023-04-15T07:22:38;52365.38;;;-146.31;67.29
2036;BME280;23642;42.658;23.350;2023-04-15T07:25:06;52408.72;;;-146.31;66.28
2036;BME280;23642;42.658;23.350;2023-04-15T07:27:34;52431.41;;;-146.31;65.92
2036;BME280;23642;42.658;23.350;2023-04-15T07:30:01;52468.56;;;-146.31;65.94
2036;BME280;23642;42.658;23.350;2023-04-15T07:32:28;52522.22;;;-146.31;65.30
2036;BME280;23642;42.658;23.350;2023-04-15T07:34:55;52530.47;;;-146.31;65.88
2036;BME280;23642;42.658;23.350;2023-04-15T07:37:22;52478.88;;;-146.31;66.08
2036;BME280;23642;42.658;23.350;2023-04-15T07:39:49;52483.00;;;-146.31;64.85
2036;BME280;23642;42.658;23.350;2023-04-15T07:42:17;52495.38;;;-146.31;65.16
2036;BME280;23642;42.658;23.350;2023-04-15T07:44:45;52456.19;;;-146.31;65.76
2036;BME280;23642;42.658;23.350;2023-04-15T07:47:12;52503.63;;;-146.31;65.13
2036;BME280;23642;42.658;23.350;2023-04-15T07:49:40;52518.09;;;-146.31;65.10
2036;BME280;23642;42.658;23.350;2023-04-15T07:52:07;52623.34;;;-146.31;64.17
2036;BME280;23642;42.658;23.350;2023-04-15T07:54:34;52652.22;;;-146.31;63.87
2036;BME280;23642;42.658;23.350;2023-04-15T07:57:01;52689.38;;;-146.31;61.08
2036;BME280;23642;42.658;23.350;2023-04-15T07:59:28;52648.09;;;-146.31;60.88
2036;BME280;23642;42.658;23.350;2023-04-15T08:01:59;52726.53;;;-146.31;60.65
2036;BME280;23642;42.658;23.350;2023-04-15T08:04:25;52679.06;;;-146.31;60.46
2036;BME280;23642;42.658;23.350;2023-04-15T08:06:52;52654.28;;;-146.31;59.12
2036;BME280;23642;42.658;23.350;2023-04-15T08:09:19;52697.63;;;-146.31;58.56
2036;BME280;23642;42.658;23.350;2023-04-15T08:11:47;52685.25;;;-146.31;58.59
2036;BME280;23642;42.658;23.350;2023-04-15T08:14:15;52798.75;;;-146.31;56.81
2036;BME280;23642;42.658;23.350;2023-04-15T08:16:41;52825.59;;;-146.31;56.91
2036;BME280;23642;42.658;23.350;2023-04-15T08:19:10;52761.59;;;-146.31;58.23
2036;BME280;23642;42.658;23.350;2023-04-15T08:21:36;52837.97;;;-146.31;55.31
2036;BME280;23642;42.658;23.350;2023-04-15T08:24:04;52866.84;;;-146.31;55.07
2036;BME280;23642;42.658;23.350;2023-04-15T08:26:32;52912.25;;;-146.31;53.91
2036;BME280;23642;42.658;23.350;2023-04-15T08:28:59;53013.41;;;-146.31;53.08
2036;BME280;23642;42.658;23.350;2023-04-15T08:31:26;53044.34;;;-146.31;52.45
2036;BME280;23642;42.658;23.350;2023-04-15T08:33:55;53040.22;;;-146.31;52.70
2036;BME280;23642;42.658;23.350;2023-04-15T08:36:25;53058.81;;;-146.31;51.06
2036;BME280;23642;42.658;23.350;2023-04-15T08:38:52;53133.09;;;-146.31;49.73
2036;BME280;23642;42.658;23.350;2023-04-15T08:41:21;53164.06;;;-146.31;49.96
2036;BME280;23642;42.658;23.350;2023-04-15T08:43:52;53184.72;;;-146.31;48.60
2036;BME280;23642;42.658;23.350;2023-04-15T08:46:20;53269.34;;;-146.31;46.94
2036;BME280;23642;42.658;23.350;2023-04-15T08:48:48;53572.78;;;-146.31;46.71
2036;BME280;23642;42.658;23.350;2023-04-15T08:51:15;53698.69;;;-146.31;46.58
2036;BME280;23642;42.658;23.350;2023-04-15T08:53:44;53824.63;;;-146.31;45.06
2036;BME280;23642;42.658;23.350;2023-04-15T08:56:13;53857.66;;;-146.31;44.99
2036;BME280;23642;42.658;23.350;2023-04-15T08:58:41;53876.25;;;-146.31;46.69
2036;BME280;23642;42.658;23.350;2023-04-15T09:01:11;53931.97;;;-146.31;46.20
2036;BME280;23642;42.658;23.350;2023-04-15T09:03:38;53956.75;;;-146.31;46.58
2036;BME280;23642;42.658;23.350;2023-04-15T09:06:05;54008.38;;;-146.31;45.61
2036;BME280;23642;42.658;23.350;2023-04-15T09:08:32;53911.34;;;-146.31;46.79
2036;BME280;23642;42.658;23.350;2023-04-15T09:11:02;53993.91;;;-146.31;43.61
2036;BME280;23642;42.658;23.350;2023-04-15T09:13:29;54221.03;;;-146.31;42.34
2036;BME280;23642;42.658;23.350;2023-04-15T09:15:57;54270.59;;;-146.31;42.48
2036;BME280;23642;42.658;23.350;2023-04-15T09:18:28;54336.66;;;-146.31;42.82
2036;BME280;23642;42.658;23.350;2023-04-15T09:21:03;54404.78;;;-146.31;43.31
2036;BME280;23642;42.658;23.350;2023-04-15T09:23:31;54406.84;;;-146.31;42.66
2036;BME280;23642;42.658;23.350;2023-04-15T09:25:58;54468.81;;;-146.31;42.39
2036;BME280;23642;42.658;23.350;2023-04-15T09:28:27;54497.72;;;-146.31;41.64
2036;BME280;23642;42.658;23.350;2023-04-15T09:30:57;54530.75;;;-146.31;41.79
2036;BME280;23642;42.658;23.350;2023-04-15T09:33:25;54530.75;;;-146.31;41.48
2036;BME280;23642;42.658;23.350;2023-04-15T09:35:56;54526.63;;;-146.31;41.03
2036;BME280;23642;42.658;23.350;2023-04-15T09:38:24;54493.59;;;-146.31;39.75
2036;BME280;23642;42.658;23.350;2023-04-15T09:40:51;54466.75;;;-146.31;38.82
2036;BME280;23642;42.658;23.350;2023-04-15T09:43:18;54491.50;;;-146.31;38.99
2036;BME280;23642;42.658;23.350;2023-04-15T09:45:51;54508.03;;;-146.31;37.24
2036;BME280;23642;42.658;23.350;2023-04-15T09:48:20;54559.66;;;-146.31;36.79
2036;BME280;23642;42.658;23.350;2023-04-15T09:50:47;54572.03;;;-146.31;36.17
2036;BME280;23642;42.658;23.350;2023-04-15T09:53:19;54671.16;;;-146.31;35.57
2036;BME280;23642;42.658;23.350;2023-04-15T09:55:49;54745.50;;;-146.31;35.24
2036;BME280;23642;42.658;23.350;2023-04-15T09:58:21;54648.44;;;-146.31;35.75
2036;BME280;23642;42.658;23.350;2023-04-15T10:00:50;54832.25;;;-146.31;33.66
2036;BME280;23642;42.658;23.350;2023-04-15T10:03:19;55018.09;;;-146.31;32.47
2036;BME280;23642;42.658;23.350;2023-04-15T10:05:48;55026.34;;;-146.31;32.32
2036;BME280;23642;42.658;23.350;2023-04-15T10:08:18;55104.84;;;-146.31;32.81
2036;BME280;23642;42.658;23.350;2023-04-15T10:10:46;55226.69;;;-146.31;31.37
2036;BME280;23642;42.658;23.350;2023-04-15T10:13:13;55263.88;;;-146.31;31.82
2036;BME280;23642;42.658;23.350;2023-04-15T10:15:44;55251.47;;;-146.31;31.99
2036;BME280;23642;42.658;23.350;2023-04-15T10:18:15;55313.44;;;-146.31;32.74
2036;BME280;23642;42.658;23.350;2023-04-15T10:20:42;55216.34;;;-146.31;31.81
2036;BME280;23642;42.658;23.350;2023-04-15T10:23:10;55090.38;;;-146.31;32.23
2036;BME280;23642;42.658;23.350;2023-04-15T10:25:38;55197.78;;;-146.31;31.82
2036;BME280;23642;42.658;23.350;2023-04-15T10:28:06;55071.78;;;-146.31;31.47
2036;BME280;23642;42.658;23.350;2023-04-15T10:30:33;55102.78;;;-146.31;30.46
2036;BME280;23642;42.658;23.350;2023-04-15T10:33:02;55206.03;;;-146.31;30.51
2036;BME280;23642;42.658;23.350;2023-04-15T10:35:31;55173.00;;;-146.31;33.03
2036;BME280;23642;42.658;23.350;2023-04-15T10:37:59;55075.91;;;-146.31;32.51
2036;BME280;23642;42.658;23.350;2023-04-15T10:40:27;55216.34;;;-146.31;31.42
2036;BME280;23642;42.658;23.350;2023-04-15T10:42:56;55206.03;;;-146.31;31.69
2036;BME280;23642;42.658;23.350;2023-04-15T10:45:25;55189.50;;;-146.31;31.92
2036;BME280;23642;42.658;23.350;2023-04-15T10:47:54;55272.13;;;-146.31;31.65
2036;BME280;23642;42.658;23.350;2023-04-15T10:50:22;55292.78;;;-146.31;31.97
2036;BME280;23642;42.658;23.350;2023-04-15T10:52:53;55350.59;;;-146.31;32.47
2036;BME280;23642;42.658;23.350;2023-04-15T10:55:21;55255.59;;;-146.31;32.14
2036;BME280;23642;42.658;23.350;2023-04-15T10:57:51;55274.19;;;-146.31;31.41
2036;BME280;23642;42.658;23.350;2023-04-15T11:00:19;55272.13;;;-146.31;30.95
2036;BME280;23642;42.658;23.350;2023-04-15T11:02:51;55265.94;;;-146.31;30.70
2036;BME280;23642;42.658;23.350;2023-04-15T11:05:19;55286.59;;;-146.31;30.91
2036;BME280;23642;42.658;23.350;2023-04-15T11:07:48;55284.50;;;-146.31;30.91
2036;BME280;23642;42.658;23.350;2023-04-15T11:10:51;55329.94;;;-146.31;31.80
2036;BME280;23642;42.658;23.350;2023-04-15T11:13:26;55336.16;;;-146.31;32.84
2036;BME280;23642;42.658;23.350;2023-04-15T11:15:57;55348.53;;;-146.31;31.33
2036;BME280;23642;42.658;23.350;2023-04-15T11:18:31;55375.41;;;-146.31;30.95
2036;BME280;23642;42.658;23.350;2023-04-15T11:21:00;55400.19;;;-146.31;31.49
2036;BME280;23642;42.658;23.350;2023-04-15T11:23:32;55325.81;;;-146.31;30.98
2036;BME280;23642;42.658;23.350;2023-04-15T11:26:02;55274.19;;;-146.31;31.67
2036;BME280;23642;42.658;23.350;2023-04-15T11:28:31;55398.13;;;-146.31;28.89
2036;BME280;23642;42.658;23.350;2023-04-15T11:31:06;55369.19;;;-146.31;28.99
2036;BME280;23642;42.658;23.350;2023-04-15T11:33:35;55447.69;;;-146.31;28.23
2036;BME280;23642;42.658;23.350;2023-04-15T11:36:02;55468.34;;;-146.31;28.62
2036;BME280;23642;42.658;23.350;2023-04-15T11:38:28;55509.66;;;-146.31;29.29
2036;BME280;23642;42.658;23.350;2023-04-15T11:40:56;55493.13;;;-146.31;28.65
2036;BME280;23642;42.658;23.350;2023-04-15T11:43:24;55581.94;;;-146.31;28.02
2036;BME280;23642;42.658;23.350;2023-04-15T11:45:53;55501.38;;;-146.31;27.97
2036;BME280;23642;42.658;23.350;2023-04-15T11:48:22;55600.53;;;-146.31;28.47
2036;BME280;23642;42.658;23.350;2023-04-15T11:50:54;55555.09;;;-146.31;28.67
2036;BME280;23642;42.658;23.350;2023-04-15T11:53:22;55538.56;;;-146.31;27.97
2036;BME280;23642;42.658;23.350;2023-04-15T11:55:50;55586.06;;;-146.31;28.37
2036;BME280;23642;42.658;23.350;2023-04-15T11:58:19;55563.34;;;-146.31;28.44
2036;BME280;23642;42.658;23.350;2023-04-15T12:00:49;55594.34;;;-146.31;29.44
2036;BME280;23642;42.658;23.350;2023-04-15T12:03:22;55567.47;;;-146.31;29.10
2036;BME280;23642;42.658;23.350;2023-04-15T12:06:06;55592.28;;;-146.31;29.00
2036;BME280;23642;42.658;23.350;2023-04-15T12:09:08;55623.25;;;-146.31;28.83
2036;BME280;23642;42.658;23.350;2023-04-15T12:11:39;55654.22;;;-146.31;28.81
2036;BME280;23642;42.658;23.350;2023-04-15T12:14:08;55625.31;;;-146.31;28.37
2036;BME280;23642;42.658;23.350;2023-04-15T12:16:39;55674.88;;;-146.31;28.56
2036;BME280;23642;42.658;23.350;2023-04-15T12:19:08;55612.91;;;-146.31;28.50
2036;BME280;23642;42.658;23.350;2023-04-15T12:21:37;55683.16;;;-146.31;28.19
2036;BME280;23642;42.658;23.350;2023-04-15T12:24:05;55645.97;;;-146.31;28.70
2036;BME280;23642;42.658;23.350;2023-04-15T12:26:35;55664.56;;;-146.31;29.45
2036;BME280;23642;42.658;23.350;2023-04-15T12:29:05;55641.84;;;-146.31;29.32
2036;BME280;23642;42.658;23.350;2023-04-15T12:31:33;55635.66;;;-146.31;28.91
2036;BME280;23642;42.658;23.350;2023-04-15T12:34:02;55625.31;;;-146.31;29.38
2036;BME280;23642;42.658;23.350;2023-04-15T12:36:30;55631.50;;;-146.31;29.16
2036;BME280;23642;42.658;23.350;2023-04-15T12:39:01;55588.13;;;-146.31;28.82
2036;BME280;23642;42.658;23.350;2023-04-15T12:41:27;55654.22;;;-146.31;28.49